createdAt,value
2022-12-12T00:01:22.164Z,98683.53
2022-12-12T00:03:49.977Z,98679.62
2022-12-12T00:06:17.907Z,98673.56
2022-12-12T00:08:45.410Z,98686.09
2022-12-12T00:11:13.440Z,98691.16
2022-12-12T00:13:40.981Z,98696.72
2022-12-12T00:16:09.423Z,98694.09
2022-12-12T00:18:37.742Z,98690.03
2022-12-12T00:21:16.286Z,98694.06
2022-12-12T00:23:44.361Z,98690.09
2022-12-12T00:26:23.849Z,98685.31
2022-12-12T00:28:51.581Z,98702.66
2022-12-12T00:31:19.177Z,98711.13
2022-12-12T00:33:48.956Z,98711.97
2022-12-12T00:36:18.960Z,98714.13
2022-12-12T00:38:46.390Z,98714.72
2022-12-12T00:41:13.737Z,98722.06
2022-12-12T00:43:41.618Z,98727.16
2022-12-12T00:46:09.327Z,98721.22
2022-12-12T00:48:36.736Z,98729.13
2022-12-12T00:51:10.120Z,98725.41
2022-12-12T00:53:38.419Z,98717.66
2022-12-12T00:56:06.478Z,98718.88
2022-12-12T00:58:34.187Z,98710.66
2022-12-12T01:01:06.442Z,98704.94
2022-12-12T01:03:35.374Z,98697.84
2022-12-12T01:06:03.129Z,98711.00
2022-12-12T01:08:30.507Z,98717.62
2022-12-12T01:10:58.165Z,98709.72
2022-12-12T01:13:26.221Z,98713.75
2022-12-12T01:15:53.686Z,98707.56
2022-12-12T01:18:21.387Z,98704.69
2022-12-12T01:20:48.714Z,98710.56
2022-12-12T01:23:16.268Z,98707.69
2022-12-12T01:25:43.964Z,98712.09
2022-12-12T01:28:11.457Z,98708.09
2022-12-12T01:30:38.897Z,98719.66
2022-12-12T01:33:06.821Z,98722.47
2022-12-12T01:35:34.553Z,98711.97
2022-12-12T01:38:01.930Z,98706.50
2022-12-12T01:40:31.345Z,98706.81
2022-12-12T01:42:59.291Z,98703.84
2022-12-12T01:45:57.679Z,98691.06
2022-12-12T01:48:28.296Z,98704.19
2022-12-12T01:50:56.662Z,98697.41
2022-12-12T01:53:25.791Z,98690.41
2022-12-12T01:55:53.952Z,98696.25
2022-12-12T01:58:21.305Z,98690.03
2022-12-12T02:00:48.681Z,98688.78
2022-12-12T02:03:16.319Z,98684.78
2022-12-12T02:05:48.036Z,98688.88
2022-12-12T02:08:16.357Z,98689.72
2022-12-12T02:10:44.823Z,98686.94
2022-12-12T02:13:16.382Z,98701.28
2022-12-12T02:15:54.116Z,98706.47
2022-12-12T02:18:45.269Z,98706.34
2022-12-12T02:21:50.407Z,98704.72
2022-12-12T02:24:29.797Z,98700.25
2022-12-12T02:26:57.859Z,98702.00
2022-12-12T02:30:02.119Z,98705.50
2022-12-12T02:32:44.762Z,98705.37
2022-12-12T02:35:24.488Z,98702.16
2022-12-12T02:38:30.687Z,98706.56
2022-12-12T02:41:07.097Z,98697.63
2022-12-12T02:44:08.207Z,98703.06
2022-12-12T02:46:44.045Z,98706.44
2022-12-12T02:49:17.802Z,98702.25
2022-12-12T02:51:46.101Z,98707.50
2022-12-12T02:54:16.411Z,98700.88
2022-12-12T02:56:43.909Z,98706.09
2022-12-12T02:59:18.836Z,98691.78
2022-12-12T03:01:52.510Z,98698.41
2022-12-12T03:05:05.863Z,98698.53
2022-12-12T03:07:58.150Z,98711.00
2022-12-12T03:10:52.535Z,98695.28
2022-12-12T03:13:56.823Z,98700.75
2022-12-12T03:16:35.495Z,98703.84
2022-12-12T03:19:27.164Z,98710.91
2022-12-12T03:22:05.528Z,98716.88
2022-12-12T03:24:46.688Z,98713.22
2022-12-12T03:27:17.848Z,98719.91
2022-12-12T03:29:57.151Z,98727.50
2022-12-12T03:32:30.947Z,98731.78
2022-12-12T03:35:13.049Z,98737.34
2022-12-12T03:37:49.272Z,98742.84
2022-12-12T03:40:24.339Z,98750.34
2022-12-12T03:43:09.397Z,98749.81
2022-12-12T03:45:55.718Z,98757.66
2022-12-12T03:48:31.616Z,98764.38
2022-12-12T03:51:11.225Z,98767.78
2022-12-12T03:53:59.528Z,98775.84
2022-12-12T03:56:35.034Z,98775.97
2022-12-12T03:59:12.716Z,98782.56
2022-12-12T04:02:04.714Z,98785.16
2022-12-12T04:05:01.455Z,98791.84
2022-12-12T04:07:45.122Z,98794.84
2022-12-12T04:10:31.473Z,98786.56
2022-12-12T04:13:13.554Z,98790.47
2022-12-12T04:15:41.349Z,98805.66
2022-12-12T04:18:14.796Z,98812.16
2022-12-12T04:21:09.853Z,98815.94
2022-12-12T04:23:57.900Z,98827.63
2022-12-12T04:26:42.390Z,98809.16
2022-12-12T04:29:18.857Z,98824.09
2022-12-12T04:32:04.660Z,98822.41
2022-12-12T04:34:52.603Z,98822.81
2022-12-12T04:37:23.826Z,98830.13
2022-12-12T04:39:53.321Z,98837.50
2022-12-12T04:42:23.190Z,98834.06
2022-12-12T04:44:52.910Z,98837.97
2022-12-12T04:47:20.810Z,98842.53
2022-12-12T04:49:50.092Z,98847.22
2022-12-12T04:52:18.803Z,98842.84
2022-12-12T04:54:51.399Z,98852.84
2022-12-12T04:57:28.782Z,98850.81
2022-12-12T04:59:56.597Z,98865.69
2022-12-12T05:02:45.817Z,98852.69
2022-12-12T05:05:19.842Z,98854.34
2022-12-12T05:07:52.810Z,98847.22
2022-12-12T05:10:20.542Z,98856.78
2022-12-12T05:12:50.370Z,98847.19
2022-12-12T05:15:19.794Z,98854.34
2022-12-12T05:17:50.557Z,98860.44
2022-12-12T05:20:18.123Z,98852.31
2022-12-12T05:22:45.467Z,98853.00
2022-12-12T05:25:13.929Z,98859.44
2022-12-12T05:27:41.560Z,98864.22
2022-12-12T05:30:09.971Z,98867.28
2022-12-12T05:32:37.618Z,98859.38
2022-12-12T05:35:06.416Z,98859.63
2022-12-12T05:37:33.792Z,98868.81
2022-12-12T05:40:01.679Z,98866.88
2022-12-12T05:42:30.188Z,98867.41
2022-12-12T05:44:57.677Z,98872.34
2022-12-12T05:47:25.329Z,98870.97
2022-12-12T05:49:53.021Z,98872.81
2022-12-12T05:52:20.432Z,98870.19
2022-12-12T05:54:48.056Z,98872.66
2022-12-12T05:57:17.256Z,98879.50
2022-12-12T05:59:45.755Z,98883.59
2022-12-12T06:02:14.701Z,98886.88
2022-12-12T06:04:42.541Z,98884.28
2022-12-12T06:07:09.903Z,98890.72
2022-12-12T06:09:37.336Z,98885.84
2022-12-12T06:12:05.262Z,98884.22
2022-12-12T06:14:33.200Z,98882.53
2022-12-12T06:17:00.621Z,98885.69
2022-12-12T06:19:28.279Z,98891.00
2022-12-12T06:21:55.697Z,98890.81
2022-12-12T06:24:23.060Z,98892.84
2022-12-12T06:26:50.991Z,98897.84
2022-12-12T06:29:18.532Z,98897.63
2022-12-12T06:31:45.883Z,98900.12
2022-12-12T06:34:13.527Z,98909.59
2022-12-12T06:36:41.217Z,98913.63
2022-12-12T06:39:09.650Z,98918.28
2022-12-12T06:41:37.506Z,98922.34
2022-12-12T06:44:05.038Z,98923.16
2022-12-12T06:46:32.665Z,98933.94
2022-12-12T06:49:00.571Z,98930.25
2022-12-12T06:51:31.952Z,98925.34
2022-12-12T06:53:59.592Z,98926.28
2022-12-12T06:56:27.417Z,98936.94
2022-12-12T06:58:55.321Z,98935.00
2022-12-12T07:01:23.681Z,98936.97
2022-12-12T07:03:52.134Z,98935.47
2022-12-12T07:06:21.517Z,98934.53
2022-12-12T07:08:49.390Z,98932.19
2022-12-12T07:11:19.810Z,98938.72
2022-12-12T07:13:48.396Z,98940.72
2022-12-12T07:16:16.452Z,98937.25
2022-12-12T07:18:43.922Z,98939.59
2022-12-12T07:21:13.749Z,98948.84
2022-12-12T07:23:41.707Z,98948.81
2022-12-12T07:26:13.267Z,98957.50
2022-12-12T07:28:41.731Z,98960.38
2022-12-12T07:31:12.867Z,98963.69
2022-12-12T07:33:44.141Z,98965.13
2022-12-12T07:36:13.164Z,98965.84
2022-12-12T07:38:41.253Z,98964.59
2022-12-12T07:41:11.624Z,98972.41
2022-12-12T07:43:43.893Z,98970.06
2022-12-12T07:46:16.110Z,98975.50
2022-12-12T07:48:43.990Z,98964.16
2022-12-12T07:51:12.434Z,98974.44
2022-12-12T07:53:39.913Z,98970.69
2022-12-12T07:56:09.061Z,98970.63
2022-12-12T07:58:37.337Z,98983.62
2022-12-12T08:01:17.183Z,98987.56
2022-12-12T08:03:46.182Z,98997.16
2022-12-12T08:06:14.019Z,98999.06
2022-12-12T08:08:42.001Z,98995.69
2022-12-12T08:11:11.473Z,99000.59
2022-12-12T08:13:39.770Z,98997.28
2022-12-12T08:16:13.333Z,98988.25
2022-12-12T08:18:41.086Z,98986.75
2022-12-12T08:21:10.780Z,98985.75
2022-12-12T08:23:38.923Z,98997.25
2022-12-12T08:26:09.453Z,99002.81
2022-12-12T08:28:37.153Z,99010.00
2022-12-12T08:31:04.867Z,99010.97
2022-12-12T08:33:32.535Z,99006.94
2022-12-12T08:36:00.242Z,99010.03
2022-12-12T08:38:28.966Z,99010.63
2022-12-12T08:40:56.594Z,99012.84
2022-12-12T08:43:23.950Z,99012.03
2022-12-12T08:45:51.295Z,99007.94
2022-12-12T08:48:18.913Z,99008.94
2022-12-12T08:50:46.268Z,99004.97
2022-12-12T08:53:13.680Z,99017.56
2022-12-12T08:55:41.289Z,99015.28
2022-12-12T08:58:08.680Z,99010.47
2022-12-12T09:00:36.584Z,99017.69
2022-12-12T09:03:04.530Z,99015.78
2022-12-12T09:05:31.968Z,99012.06
2022-12-12T09:07:59.756Z,99017.91
2022-12-12T09:10:28.184Z,99021.84
2022-12-12T09:12:55.771Z,99005.78
2022-12-12T09:15:23.123Z,99013.94
2022-12-12T09:17:50.780Z,99008.78
2022-12-12T09:20:18.267Z,99015.00
2022-12-12T09:22:45.896Z,99007.06
2022-12-12T09:25:13.943Z,99001.38
2022-12-12T09:27:41.472Z,99003.97
2022-12-12T09:30:09.748Z,99019.44
2022-12-12T09:32:37.851Z,99000.34
2022-12-12T09:35:05.825Z,99009.91
2022-12-12T09:37:33.732Z,99001.47
2022-12-12T09:40:01.770Z,99012.84
2022-12-12T09:42:31.776Z,99020.03
2022-12-12T09:45:03.895Z,99020.84
2022-12-12T09:47:45.004Z,99017.31
2022-12-12T09:50:37.886Z,99012.47
2022-12-12T09:53:12.539Z,99021.31
2022-12-12T09:55:55.201Z,99024.81
2022-12-12T09:58:26.770Z,99021.09
2022-12-12T10:01:00.447Z,99025.16
2022-12-12T10:03:30.504Z,99015.75
2022-12-12T10:06:35.865Z,99015.34
2022-12-12T10:09:31.556Z,99013.91
2022-12-12T10:12:04.901Z,99038.31
2022-12-12T10:14:39.565Z,99032.53
2022-12-12T10:17:15.889Z,99028.03
2022-12-12T10:19:53.623Z,99018.34
2022-12-12T10:22:42.193Z,99027.59
2022-12-12T10:25:21.256Z,99024.56
2022-12-12T10:28:08.728Z,99031.28
2022-12-12T10:31:01.907Z,99033.09
2022-12-12T10:33:54.509Z,99031.53
2022-12-12T10:36:40.519Z,99030.56
2022-12-12T10:39:44.379Z,99034.34
2022-12-12T10:42:12.666Z,99042.56
2022-12-12T10:44:54.557Z,99037.53
2022-12-12T10:47:22.280Z,99043.31
2022-12-12T10:49:52.846Z,99042.03
2022-12-12T10:52:22.067Z,99056.47
2022-12-12T10:54:58.443Z,99052.72
2022-12-12T10:57:34.379Z,99060.56
2022-12-12T11:00:17.383Z,99045.34
2022-12-12T11:02:45.096Z,99052.34
2022-12-12T11:05:23.090Z,99044.97
2022-12-12T11:08:00.649Z,99047.63
2022-12-12T11:10:34.547Z,99052.97
2022-12-12T11:13:11.258Z,99042.28
2022-12-12T11:15:40.104Z,99042.44
2022-12-12T11:18:15.153Z,99044.75
2022-12-12T11:20:50.636Z,99052.34
2022-12-12T11:23:26.880Z,99049.78
2022-12-12T11:25:57.429Z,99062.81
2022-12-12T11:28:27.578Z,99052.97
2022-12-12T11:30:56.176Z,99057.69
2022-12-12T11:33:32.682Z,99054.41
2022-12-12T11:36:02.014Z,99062.59
2022-12-12T11:38:41.065Z,99059.53
2022-12-12T11:41:10.550Z,99058.88
2022-12-12T11:43:50.100Z,99059.09
2022-12-12T11:46:19.882Z,99052.59
2022-12-12T11:48:56.395Z,99062.50
2022-12-12T11:51:33.611Z,99053.81
2022-12-12T11:54:02.830Z,99059.44
2022-12-12T11:57:02.247Z,99065.66
2022-12-12T12:00:00.357Z,99068.72
2022-12-12T12:02:49.270Z,99074.94
2022-12-12T12:05:41.577Z,99074.94
2022-12-12T12:08:28.936Z,99078.69
2022-12-12T12:11:25.061Z,99083.97
2022-12-12T12:14:30.077Z,99076.91
2022-12-12T12:17:02.981Z,99082.53
2022-12-12T12:19:48.704Z,99082.12
2022-12-12T12:22:35.669Z,99077.81
2022-12-12T12:25:16.113Z,99084.31
2022-12-12T12:27:53.615Z,99086.44
2022-12-12T12:30:25.834Z,99082.28
2022-12-12T12:33:12.007Z,99075.69
2022-12-12T12:35:52.860Z,99086.59
2022-12-12T12:38:36.105Z,99085.25
2022-12-12T12:41:16.802Z,99081.78
2022-12-12T12:44:03.416Z,99089.72
2022-12-12T12:46:36.372Z,99092.72
2022-12-12T12:49:11.514Z,99095.84
2022-12-12T12:51:46.995Z,99102.81
2022-12-12T12:54:25.947Z,99113.06
2022-12-12T12:57:01.104Z,99106.66
2022-12-12T12:59:34.173Z,99118.75
2022-12-12T13:02:10.848Z,99106.00
2022-12-12T13:04:45.568Z,99096.19
2022-12-12T13:07:45.424Z,99116.31
2022-12-12T13:10:25.894Z,99109.59
2022-12-12T13:13:01.707Z,99108.94
2022-12-12T13:15:33.558Z,99107.25
2022-12-12T13:18:21.538Z,99108.56
2022-12-12T13:21:21.562Z,99112.28
2022-12-12T13:24:15.288Z,99110.88
2022-12-12T13:26:52.617Z,99110.00
2022-12-12T13:29:53.746Z,99108.56
2022-12-12T13:32:33.507Z,99110.06
2022-12-12T13:35:05.110Z,99121.81
2022-12-12T13:37:36.500Z,99125.28
2022-12-12T13:40:06.812Z,99125.37
2022-12-12T13:42:55.467Z,99121.34
2022-12-12T13:45:31.893Z,99125.13
2022-12-12T13:48:02.170Z,99126.41
2022-12-12T13:50:29.996Z,99129.03
2022-12-12T13:53:17.566Z,99126.41
2022-12-12T13:55:45.284Z,99122.25
2022-12-12T13:58:33.639Z,99118.09
2022-12-12T14:01:40.442Z,99119.03
2022-12-12T14:04:39.730Z,99128.78
2022-12-12T14:07:16.915Z,99118.13
2022-12-12T14:09:50.109Z,99112.75
2022-12-12T14:12:30.654Z,99120.47
2022-12-12T14:15:02.643Z,99111.63
2022-12-12T14:17:38.330Z,99115.44
2022-12-12T14:20:24.414Z,99113.44
2022-12-12T14:22:51.666Z,99105.78
2022-12-12T14:25:21.049Z,99105.06
2022-12-12T14:27:49.109Z,99113.59
2022-12-12T14:30:18.276Z,99103.94
2022-12-12T14:33:05.964Z,99120.19
2022-12-12T14:35:54.322Z,99119.00
2022-12-12T14:38:34.845Z,99125.50
2022-12-12T14:41:04.994Z,99121.44
2022-12-12T14:43:37.470Z,99123.66
2022-12-12T14:46:05.384Z,99129.81
2022-12-12T14:48:33.904Z,99133.03
2022-12-12T14:51:10.281Z,99135.72
2022-12-12T14:53:37.805Z,99132.87
2022-12-12T14:56:14.766Z,99133.28
2022-12-12T14:58:46.145Z,99136.47
2022-12-12T15:01:15.683Z,99141.09
2022-12-12T15:03:46.796Z,99139.31
2022-12-12T15:06:26.388Z,99138.31
2022-12-12T15:08:55.805Z,99134.41
2022-12-12T15:11:26.438Z,99145.72
2022-12-12T15:13:57.954Z,99150.66
2022-12-12T15:16:27.498Z,99148.78
2022-12-12T15:18:56.204Z,99150.56
2022-12-12T15:21:23.849Z,99148.66
2022-12-12T15:23:51.512Z,99162.56
2022-12-12T15:26:22.954Z,99157.34
2022-12-12T15:28:50.366Z,99162.78
2022-12-12T15:31:19.256Z,99170.03
2022-12-12T15:33:47.697Z,99173.41
2022-12-12T15:36:26.467Z,99181.28
2022-12-12T15:39:16.136Z,99182.19
2022-12-12T15:41:44.226Z,99183.31
2022-12-12T15:44:18.451Z,99185.72
2022-12-12T15:46:47.809Z,99179.94
2022-12-12T15:49:35.131Z,99194.41
2022-12-12T15:52:19.849Z,99187.25
2022-12-12T15:54:48.499Z,99191.00
2022-12-12T15:57:18.047Z,99186.19
2022-12-12T15:59:45.930Z,99190.53
2022-12-12T16:02:27.159Z,99193.47
2022-12-12T16:05:17.816Z,99197.03
2022-12-12T16:07:45.835Z,99191.81
2022-12-12T16:10:13.558Z,99195.78
2022-12-12T16:13:02.451Z,99193.56
2022-12-12T16:15:35.662Z,99187.44
2022-12-12T16:18:16.771Z,99195.97
2022-12-12T16:20:55.467Z,99201.00
2022-12-12T16:23:30.131Z,99194.69
2022-12-12T16:25:58.321Z,99196.31
2022-12-12T16:28:27.825Z,99184.25
2022-12-12T16:31:00.996Z,99187.06
2022-12-12T16:33:36.073Z,99185.94
2022-12-12T16:36:04.931Z,99184.53
2022-12-12T16:38:33.106Z,99195.50
2022-12-12T16:41:09.165Z,99188.44
2022-12-12T16:43:38.452Z,99194.00
2022-12-12T16:46:06.379Z,99201.31
2022-12-12T16:48:35.993Z,99194.78
2022-12-12T16:51:08.757Z,99195.97
2022-12-12T16:53:37.024Z,99201.03
2022-12-12T16:56:05.098Z,99207.34
2022-12-12T16:58:34.045Z,99206.91
2022-12-12T17:01:02.808Z,99208.59
2022-12-12T17:03:32.828Z,99210.72
2022-12-12T17:06:00.261Z,99215.44
2022-12-12T17:08:27.908Z,99216.97
2022-12-12T17:11:10.132Z,99212.66
2022-12-12T17:13:48.073Z,99209.16
2022-12-12T17:16:15.901Z,99212.44
2022-12-12T17:18:43.779Z,99221.00
2022-12-12T17:21:11.190Z,99214.66
2022-12-12T17:23:40.245Z,99212.47
2022-12-12T17:26:07.652Z,99204.69
2022-12-12T17:28:36.232Z,99203.94
2022-12-12T17:31:08.561Z,99195.84
2022-12-12T17:33:46.197Z,99202.41
2022-12-12T17:36:19.784Z,99203.94
2022-12-12T17:38:47.976Z,99193.81
2022-12-12T17:41:15.632Z,99204.06
2022-12-12T17:43:43.243Z,99200.50
2022-12-12T17:46:15.747Z,99203.44
2022-12-12T17:48:47.463Z,99199.00
2022-12-12T17:51:18.257Z,99197.97
2022-12-12T17:53:46.342Z,99204.47
2022-12-12T17:56:16.824Z,99220.47
2022-12-12T17:58:46.530Z,99224.97
2022-12-12T18:01:16.169Z,99227.03
2022-12-12T18:03:44.875Z,99221.97
2022-12-12T18:06:13.141Z,99219.66
2022-12-12T18:08:41.389Z,99226.25
2022-12-12T18:11:11.380Z,99231.50
2022-12-12T18:13:40.160Z,99234.94
2022-12-12T18:16:09.281Z,99241.22
2022-12-12T18:18:37.516Z,99243.09
2022-12-12T18:21:07.197Z,99242.50
2022-12-12T18:23:35.433Z,99251.94
2022-12-12T18:26:09.517Z,99239.56
2022-12-12T18:28:38.132Z,99252.53
2022-12-12T18:31:07.330Z,99251.31
2022-12-12T18:33:36.320Z,99245.56
2022-12-12T18:36:06.865Z,99249.00
2022-12-12T18:38:36.298Z,99252.25
2022-12-12T18:41:06.268Z,99248.72
2022-12-12T18:43:34.583Z,99259.66
2022-12-12T18:46:14.128Z,99258.28
2022-12-12T18:48:43.710Z,99262.19
2022-12-12T18:51:24.408Z,99260.47
2022-12-12T18:53:53.801Z,99269.28
2022-12-12T18:56:28.012Z,99262.94
2022-12-12T18:58:57.666Z,99268.34
2022-12-12T19:01:31.081Z,99268.25
2022-12-12T19:04:07.364Z,99262.37
2022-12-12T19:06:42.094Z,99265.53
2022-12-12T19:09:19.054Z,99276.09
2022-12-12T19:11:52.410Z,99286.50
2022-12-12T19:14:22.699Z,99285.41
2022-12-12T19:16:51.641Z,99286.75
2022-12-12T19:19:20.327Z,99281.78
2022-12-12T19:21:48.937Z,99290.06
2022-12-12T19:24:16.948Z,99295.41
2022-12-12T19:26:45.480Z,99293.59
2022-12-12T19:29:18.016Z,99302.91
2022-12-12T19:31:47.660Z,99304.38
2022-12-12T19:37:02.616Z,99305.25
2022-12-12T19:39:32.185Z,99315.72
2022-12-12T19:42:01.385Z,99320.69
2022-12-12T19:44:32.839Z,99315.66
2022-12-12T19:47:02.211Z,99320.63
2022-12-12T19:49:31.468Z,99320.88
2022-12-12T19:52:00.067Z,99322.28
2022-12-12T19:54:28.743Z,99320.53
2022-12-12T19:56:59.913Z,99333.59
2022-12-12T19:59:28.514Z,99331.84
2022-12-12T20:02:00.570Z,99339.69
2022-12-12T20:04:31.232Z,99344.44
2022-12-12T20:06:59.787Z,99350.63
2022-12-12T20:09:32.507Z,99353.31
2022-12-12T20:12:03.271Z,99354.09
2022-12-12T20:14:36.183Z,99350.84
2022-12-12T20:17:05.307Z,99353.00
2022-12-12T20:19:33.435Z,99345.66
2022-12-12T20:22:03.131Z,99353.69
2022-12-12T20:24:34.999Z,99362.41
2022-12-12T20:27:04.868Z,99372.31
2022-12-12T20:29:33.881Z,99362.41
2022-12-12T20:32:05.213Z,99373.47
2022-12-12T20:34:33.841Z,99373.53
2022-12-12T20:37:03.063Z,99365.12
2022-12-12T20:39:32.722Z,99363.56
2022-12-12T20:42:01.286Z,99367.87
2022-12-12T20:44:30.444Z,99365.47
2022-12-12T20:47:00.450Z,99373.91
2022-12-12T20:49:30.381Z,99368.59
2022-12-12T20:51:59.567Z,99366.47
2022-12-12T20:54:28.985Z,99369.19
2022-12-12T20:56:58.733Z,99376.87
2022-12-12T20:59:27.061Z,99371.28
2022-12-12T21:01:55.520Z,99368.25
2022-12-12T21:04:25.389Z,99371.00
2022-12-12T21:06:53.228Z,99373.91
2022-12-12T21:09:25.842Z,99371.06
2022-12-12T21:11:56.308Z,99369.78
2022-12-12T21:14:24.837Z,99371.00
2022-12-12T21:16:52.887Z,99380.62
2022-12-12T21:19:22.055Z,99384.25
2022-12-12T21:21:49.746Z,99379.44
2022-12-12T21:24:18.020Z,99384.56
2022-12-12T21:26:46.711Z,99380.34
2022-12-12T21:29:15.457Z,99375.56
2022-12-12T21:31:50.227Z,99379.66
2022-12-12T21:34:21.195Z,99379.25
2022-12-12T21:36:53.281Z,99379.72
2022-12-12T21:39:23.152Z,99369.19
2022-12-12T21:41:51.475Z,99384.25
2022-12-12T21:44:20.222Z,99383.87
2022-12-12T21:46:48.401Z,99382.25
2022-12-12T21:49:28.434Z,99389.59
2022-12-12T21:52:05.207Z,99392.41
2022-12-12T21:54:32.849Z,99389.94
2022-12-12T21:57:01.217Z,99386.94
2022-12-12T21:59:29.175Z,99388.97
2022-12-12T22:01:58.576Z,99382.19
2022-12-12T22:04:26.605Z,99382.94
2022-12-12T22:06:54.257Z,99384.03
2022-12-12T22:09:21.594Z,99386.72
2022-12-12T22:11:49.682Z,99381.78
2022-12-12T22:14:18.754Z,99382.28
2022-12-12T22:16:46.438Z,99388.84
2022-12-12T22:19:15.757Z,99391.41
2022-12-12T22:21:48.487Z,99390.03
2022-12-12T22:24:17.284Z,99384.25
2022-12-12T22:26:49.904Z,99383.13
2022-12-12T22:29:20.087Z,99381.56
2022-12-12T22:31:50.236Z,99376.53
2022-12-12T22:34:23.552Z,99381.94
2022-12-12T22:36:51.913Z,99379.94
2022-12-12T22:39:24.525Z,99378.44
2022-12-12T22:41:53.118Z,99397.41
2022-12-12T22:44:22.611Z,99381.22
2022-12-12T22:46:52.069Z,99387.53
2022-12-12T22:49:22.557Z,99393.94
2022-12-12T22:51:50.278Z,99386.47
2022-12-12T22:54:18.184Z,99382.31
2022-12-12T22:56:45.537Z,99385.06
2022-12-12T22:59:13.634Z,99389.75
2022-12-12T23:01:41.545Z,99394.06
2022-12-12T23:04:14.126Z,99394.53
2022-12-12T23:06:42.892Z,99396.91
2022-12-12T23:09:22.247Z,99403.25
2022-12-12T23:11:49.935Z,99402.06
2022-12-12T23:14:21.559Z,99400.91
2022-12-12T23:16:50.293Z,99409.53
2022-12-12T23:19:20.175Z,99409.69
2022-12-12T23:21:47.872Z,99406.44
2022-12-12T23:24:15.621Z,99406.75
2022-12-12T23:26:43.349Z,99412.16
2022-12-12T23:29:16.074Z,99416.75
2022-12-12T23:31:44.451Z,99420.38
2022-12-12T23:34:20.532Z,99419.53
2022-12-12T23:36:49.285Z,99418.03
2022-12-12T23:39:17.175Z,99425.53
2022-12-12T23:41:44.799Z,99426.25
2022-12-12T23:44:13.835Z,99435.63
2022-12-12T23:46:41.509Z,99432.75
2022-12-12T23:49:11.886Z,99431.97
2022-12-12T23:51:44.095Z,99433.09
2022-12-12T23:54:14.419Z,99428.50
2022-12-12T23:56:42.352Z,99431.63
2022-12-12T23:59:15.520Z,99435.84
